• Join FlightAware (Why Join?)
  • Login
  • US Flag 
09:22AM EDT


 

Airport Tracker/Info


-or-


 

Live Flight TrackerFlight Track Log ✈ N450S ✈ 01-May-2012 ✈ KAVP - KMPO

Flight Track Log - Related Links

Times and Time Zones

All times are in EDT time to prevent confusion due to time zone crossing. See the N450S flight status page for this flight to view local times or setup timezone preferences in your user account.

Time Position Orientation Groundspeed Altitude Reporting Facility
EDT Latitude Longitude Course Direction KTS MPH feet Rate Location/Type
01:37PM 41.3143 -75.6786 124° Southeast  Level FlightAware Approximate
01:38PM 41.2955 -75.6421 127° Southeast  Level FlightAware Approximate
01:39PM 41.2754 -75.6068 127° Southeast  Level FlightAware Approximate
01:40PM 41.2553 -75.5716 127° Southeast  Level FlightAware Approximate
01:41PM 41.2352 -75.5364 127° Southeast  Level FlightAware Approximate
01:42PM 41.2151 -75.5012 127° Southeast  Level FlightAware Approximate
01:43PM 41.1949 -75.4660 127° Southeast  Level FlightAware Approximate
01:44PM 41.1748 -75.4308 130° Southeast  Level FlightAware Approximate
01:45PM 41.1535 -75.3969 141° Southeast  Level FlightAware Approximate
01:46PM 41.1276 -75.3693 19° North  Level Estimated
01:47PM 41.1333 -75.3667 293° West  Level FlightAware Approximate
01:48PM 41.1465 -75.4072 113° Southeast  Level Estimated
01:49PM 41.1333 -75.3667 293° West  Level FlightAware Approximate
01:50PM 41.1465 -75.4072 113° Southeast  Level Estimated
01:51PM 41.1333 -75.3667 293° West  Level FlightAware Approximate
01:52PM 41.1465 -75.4072 113° Southeast  Level Estimated
01:53PM 41.1333 -75.3667 293° West  Level FlightAware Approximate
01:54PM 41.1465 -75.4072 113° Southeast  Level Estimated
01:55PM 41.1333 -75.3667 293° West  Level FlightAware Approximate
01:56PM 41.1465 -75.4072 113° Southeast  Level Estimated
01:57PM 41.1333 -75.3667 113° Southeast  Level FlightAware Approximate